Time;durP1;ratioP1;P1;durP2;ratioP2;P2;SDS_P1;SDS_P2;PMS_P1;PMS_P2;Temp;Humidity;BMP_temperature;BMP_pressure;BME280_temperature;BME280_humidity;BME280_pressure;Samples;Min_cycle;Max_cycle;Signal;HPM_P1;HPM_P2
2021/04/18 00:00:59;;;;;;;25.95;14.63;;;;;;;4.57;100.00;94785.25;5085389;28;20068;-68
2021/04/18 00:03:26;;;;;;;33.90;13.60;;;;;;;4.54;100.00;94785.66;5085011;28;20519;-68
2021/04/18 00:05:53;;;;;;;26.95;14.23;;;;;;;4.58;100.00;94776.53;5085001;28;20517;-67
2021/04/18 00:08:19;;;;;;;24.20;14.93;;;;;;;4.66;100.00;94766.03;5085198;28;20036;-68
2021/04/18 00:10:45;;;;;;;26.05;14.30;;;;;;;4.65;100.00;94767.03;5085166;28;20044;-68
2021/04/18 00:13:14;;;;;;;21.75;13.80;;;;;;;4.55;100.00;94736.44;5085225;28;20520;-68
2021/04/18 00:15:42;;;;;;;26.75;15.00;;;;;;;4.42;100.00;94735.63;5085779;28;20048;-68
2021/04/18 00:18:12;;;;;;;20.55;14.02;;;;;;;4.47;100.00;94748.75;5084855;28;20117;-67
2021/04/18 00:20:38;;;;;;;21.50;13.10;;;;;;;4.54;100.00;94750.34;5085194;28;20501;-68
2021/04/18 00:23:05;;;;;;;29.67;16.27;;;;;;;4.49;100.00;94741.59;5084419;28;20054;-68
2021/04/18 00:25:32;;;;;;;23.80;14.55;;;;;;;4.61;100.00;94755.53;5082972;28;20064;-68
2021/04/18 00:27:58;;;;;;;26.15;16.40;;;;;;;4.61;100.00;94755.53;5083761;28;20412;-67
2021/04/18 00:30:24;;;;;;;28.98;15.88;;;;;;;4.58;100.00;94735.28;5084746;28;20059;-68
2021/04/18 00:32:59;;;;;;;26.33;16.00;;;;;;;4.62;100.00;94741.63;5084242;28;20063;-68
2021/04/18 00:35:26;;;;;;;29.77;17.52;;;;;;;4.53;100.00;94742.78;5085730;28;20478;-68
2021/04/18 00:37:52;;;;;;;27.83;18.35;;;;;;;4.50;100.00;94738.00;5065129;28;20036;-67
2021/04/18 00:40:21;;;;;;;27.88;17.35;;;;;;;4.52;100.00;94733.44;5084633;28;20063;-68
2021/04/18 00:42:49;;;;;;;29.92;18.30;;;;;;;4.46;100.00;94727.28;5080701;28;20039;-68
2021/04/18 00:45:16;;;;;;;36.08;19.23;;;;;;;4.39;100.00;94732.47;5084218;28;20039;-68
2021/04/18 00:47:45;;;;;;;31.80;19.75;;;;;;;4.35;100.00;94738.97;5085030;28;20585;-67
2021/04/18 00:50:14;;;;;;;35.78;18.13;;;;;;;4.37;100.00;94744.72;5083105;28;20075;-67
2021/04/18 00:52:40;;;;;;;29.42;17.95;;;;;;;4.32;100.00;94757.44;5066902;28;20497;-68
2021/04/18 00:55:08;;;;;;;34.10;18.20;;;;;;;4.28;100.00;94756.19;5083576;28;20036;-68
2021/04/18 00:57:35;;;;;;;29.00;18.10;;;;;;;4.36;100.00;94752.69;5084663;28;20136;-67
2021/04/18 01:00:07;;;;;;;26.63;17.98;;;;;;;4.32;100.00;94744.53;5064706;28;20406;-67
2021/04/18 01:02:33;;;;;;;34.00;18.55;;;;;;;4.39;100.00;94753.09;5084946;28;20036;-68
2021/04/18 01:05:00;;;;;;;28.13;17.67;;;;;;;4.37;100.00;94752.47;5084347;28;20047;-67
2021/04/18 01:07:27;;;;;;;26.13;17.35;;;;;;;4.44;100.00;94749.91;5084823;28;22463;-68
2021/04/18 01:09:54;;;;;;;28.80;17.30;;;;;;;4.48;100.00;94734.84;5082629;28;20111;-68
2021/04/18 01:12:22;;;;;;;27.27;15.93;;;;;;;4.34;100.00;94714.19;5065993;28;20047;-68
2021/04/18 01:14:48;;;;;;;26.80;17.33;;;;;;;4.46;100.00;94735.03;5084322;28;20056;-68
2021/04/18 01:17:15;;;;;;;29.42;16.95;;;;;;;4.38;100.00;94735.22;5084664;28;20067;-68
2021/04/18 01:19:42;;;;;;;26.70;15.90;;;;;;;4.27;100.00;94734.00;5084326;28;20036;-68
2021/04/18 01:22:08;;;;;;;26.42;16.35;;;;;;;4.31;100.00;94740.34;5083932;28;20054;-67
2021/04/18 01:24:47;;;;;;;28.33;15.77;;;;;;;4.22;100.00;94737.16;5065297;28;20052;-67
2021/04/18 01:27:23;;;;;;;24.13;15.60;;;;;;;4.32;100.00;94752.28;5083365;28;20077;-67
2021/04/18 01:29:52;;;;;;;32.50;17.75;;;;;;;4.32;100.00;94757.44;5083658;28;20039;-67
2021/04/18 01:32:22;;;;;;;25.50;16.45;;;;;;;4.37;100.00;94739.56;5084379;28;20052;-68
2021/04/18 01:34:49;;;;;;;30.65;20.05;;;;;;;4.29;100.00;94736.41;5084280;28;20054;-67
2021/04/18 01:37:19;;;;;;;30.08;19.58;;;;;;;4.26;100.00;94729.81;5082828;28;20063;-68
2021/04/18 01:39:47;;;;;;;31.67;19.58;;;;;;;4.30;100.00;94728.44;5083748;28;20040;-68
2021/04/18 01:42:13;;;;;;;30.40;20.40;;;;;;;4.28;100.00;94733.00;5083947;28;20528;-67
2021/04/18 01:44:40;;;;;;;35.75;22.00;;;;;;;4.30;100.00;94720.69;5062274;28;20589;-68
2021/04/18 01:47:07;;;;;;;35.80;22.23;;;;;;;4.28;100.00;94730.41;5081801;28;20051;-68
2021/04/18 01:49:36;;;;;;;37.22;22.70;;;;;;;4.29;100.00;94747.50;5065857;28;20044;-68
2021/04/18 01:52:03;;;;;;;38.50;23.55;;;;;;;4.25;100.00;94733.41;5083333;28;20084;-67
2021/04/18 01:54:29;;;;;;;39.08;24.23;;;;;;;4.25;100.00;94730.00;5065824;28;20040;-68
2021/04/18 01:56:56;;;;;;;32.20;21.85;;;;;;;4.10;100.00;94717.28;5082656;28;20059;-68
2021/04/18 01:59:23;;;;;;;40.33;24.35;;;;;;;4.06;100.00;94706.56;5084336;28;20052;-68
2021/04/18 02:02:18;;;;;;;42.00;22.50;;;;;;;4.06;100.00;94710.94;5066156;28;20047;-67
2021/04/18 02:04:54;;;;;;;36.58;21.80;;;;;;;3.99;100.00;94701.38;5064130;28;20457;-67
2021/04/18 02:07:21;;;;;;;37.25;21.95;;;;;;;4.15;100.00;94710.56;5084225;28;20055;-67
2021/04/18 02:09:48;;;;;;;32.60;20.67;;;;;;;4.16;100.00;94721.66;5063932;28;20495;-67
2021/04/18 02:12:15;;;;;;;31.88;21.10;;;;;;;4.10;100.00;94717.28;5083967;28;20582;-67
2021/04/18 02:14:42;;;;;;;31.45;20.90;;;;;;;4.13;100.00;94727.22;5083795;28;20563;-67
2021/04/18 02:17:14;;;;;;;37.35;22.58;;;;;;;4.15;100.00;94720.06;5064405;28;20071;-68
2021/04/18 02:19:41;;;;;;;41.95;23.50;;;;;;;4.18;100.00;94730.00;5084134;28;20109;-68
2021/04/18 02:22:08;;;;;;;33.45;21.45;;;;;;;4.16;100.00;94731.97;5083356;28;20048;-68
2021/04/18 02:24:40;;;;;;;42.42;23.33;;;;;;;4.12;100.00;94735.91;5064441;28;20156;-67
2021/04/18 02:27:07;;;;;;;40.70;24.38;;;;;;;4.07;100.00;94722.81;5064349;28;20815;-68
2021/04/18 02:29:41;;;;;;;36.97;23.20;;;;;;;4.15;100.00;94720.06;5064886;28;20067;-68
2021/04/18 02:32:14;;;;;;;37.67;22.35;;;;;;;4.14;100.00;94708.16;5065683;28;20047;-68
2021/04/18 02:34:50;;;;;;;36.13;22.20;;;;;;;4.07;100.00;94715.06;5065351;28;20097;-68
2021/04/18 02:37:17;;;;;;;38.45;23.20;;;;;;;4.10;100.00;94723.22;5065876;28;20599;-68
2021/04/18 02:39:44;;;;;;;37.92;24.40;;;;;;;4.05;100.00;94715.28;5065307;28;20119;-67
2021/04/18 02:42:11;;;;;;;37.78;22.05;;;;;;;4.11;100.00;94724.81;5082999;28;20055;-68
2021/04/18 02:44:38;;;;;;;39.28;22.33;;;;;;;4.09;100.00;94720.84;5079770;28;20040;-67
2021/04/18 02:47:06;;;;;;;37.90;21.13;;;;;;;4.06;100.00;94721.25;5064757;28;20056;-67
2021/04/18 02:49:36;;;;;;;41.28;21.67;;;;;;;4.12;100.00;94728.19;5082320;28;20036;-67
2021/04/18 02:52:04;;;;;;;34.85;21.73;;;;;;;4.06;100.00;94723.81;5067778;28;20131;-67
2021/04/18 02:54:31;;;;;;;38.53;21.33;;;;;;;4.05;100.00;94724.78;5069040;28;20101;-67
2021/04/18 02:57:02;;;;;;;41.80;22.42;;;;;;;3.96;100.00;94721.56;5067520;28;20062;-67
2021/04/18 02:59:28;;;;;;;41.53;21.77;;;;;;;3.94;100.00;94714.06;5086844;28;20038;-68
2021/04/18 03:01:56;;;;;;;39.97;22.17;;;;;;;3.86;100.00;94721.94;5086319;28;20059;-67
2021/04/18 03:04:23;;;;;;;41.03;21.20;;;;;;;3.79;100.00;94705.66;5069051;28;20036;-67
2021/04/18 03:06:50;;;;;;;41.33;21.00;;;;;;;3.97;100.00;94741.22;5086377;28;20105;-68
2021/04/18 03:09:16;;;;;;;36.95;21.02;;;;;;;3.95;100.00;94736.25;5085541;28;20036;-67
2021/04/18 03:11:48;;;;;;;36.67;22.10;;;;;;;3.99;100.00;94736.66;5067526;28;20063;-68
2021/04/18 03:14:35;;;;;;;37.35;19.52;;;;;;;3.90;100.00;94723.16;5085635;28;20505;-67
2021/04/18 03:17:02;;;;;;;40.55;21.63;;;;;;;3.89;100.00;94711.25;5086369;28;20530;-67
2021/04/18 03:19:40;;;;;;;38.13;22.33;;;;;;;3.82;100.00;94713.03;5086220;28;20074;-68
2021/04/18 03:22:08;;;;;;;36.20;21.75;;;;;;;3.94;100.00;94731.28;5067659;28;20051;-67
2021/04/18 03:24:38;;;;;;;38.97;21.88;;;;;;;3.90;100.00;94730.88;5068137;28;20590;-68
2021/04/18 03:27:06;;;;;;;43.97;23.17;;;;;;;4.01;100.00;94739.84;5085096;28;20055;-68
2021/04/18 03:29:35;;;;;;;41.33;21.20;;;;;;;3.95;100.00;94725.94;5058061;28;20044;-68
2021/04/18 03:32:02;;;;;;;42.83;21.88;;;;;;;3.93;100.00;94715.03;5085898;28;20044;-67
2021/04/18 03:34:28;;;;;;;42.55;23.02;;;;;;;3.98;100.00;94735.88;5068303;28;20083;-67
2021/04/18 03:36:55;;;;;;;39.55;20.85;;;;;;;4.16;100.00;94726.81;5085749;28;20044;-67
2021/04/18 03:39:22;;;;;;;43.55;22.30;;;;;;;4.05;100.00;94724.78;5067710;28;20570;-67
2021/04/18 03:41:52;;;;;;;34.22;20.00;;;;;;;3.92;100.00;94723.75;5084530;28;20075;-67
2021/04/18 03:44:19;;;;;;;51.58;20.80;;;;;;;3.96;100.00;94727.56;5064094;28;20036;-67
2021/04/18 03:46:46;;;;;;;35.70;20.60;;;;;;;3.98;100.00;94737.63;5068108;28;20044;-68
2021/04/18 03:49:21;;;;;;;34.58;20.15;;;;;;;4.02;100.00;94757.69;5067357;28;20044;-67
2021/04/18 03:51:55;;;;;;;48.53;21.23;;;;;;;4.04;100.00;94767.03;5065766;28;20039;-68
2021/04/18 03:54:22;;;;;;;39.05;21.35;;;;;;;3.93;100.00;94753.69;5067417;28;20097;-67
2021/04/18 03:56:50;;;;;;;40.33;21.80;;;;;;;4.15;100.00;94756.16;5066260;28;20044;-67
2021/04/18 03:59:19;;;;;;;35.53;20.63;;;;;;;4.08;100.00;94755.34;5066773;28;20048;-68
2021/04/18 04:01:47;;;;;;;37.00;19.90;;;;;;;4.11;100.00;94757.53;5082536;28;20052;-68
2021/04/18 04:04:17;;;;;;;43.50;19.70;;;;;;;4.13;100.00;94753.00;5068188;28;20078;-68
2021/04/18 04:06:44;;;;;;;35.22;18.20;;;;;;;4.04;100.00;94738.69;5085766;28;20412;-68
2021/04/18 04:09:11;;;;;;;31.77;18.73;;;;;;;3.98;100.00;94761.66;5066403;28;20058;-68
2021/04/18 04:11:40;;;;;;;41.00;19.95;;;;;;;3.97;100.00;94754.88;5084653;28;20047;-68
2021/04/18 04:14:12;;;;;;;30.33;18.98;;;;;;;4.09;100.00;94773.19;5066296;28;20159;-68
2021/04/18 04:16:44;;;;;;;36.30;19.05;;;;;;;3.99;100.00;94776.09;5067036;28;20044;-69
2021/04/18 04:19:14;;;;;;;39.60;20.30;;;;;;;3.96;100.00;94763.63;5084282;28;20040;-68
2021/04/18 04:22:13;;;;;;;35.33;21.02;;;;;;;3.81;100.00;94755.22;5069948;28;20533;-69
2021/04/18 04:24:52;;;;;;;40.80;19.33;;;;;;;3.73;100.00;94760.53;5083255;28;20093;-69
2021/04/18 04:27:19;;;;;;;36.67;21.30;;;;;;;3.78;100.00;94776.19;5085434;28;20051;-68
2021/04/18 04:29:47;;;;;;;32.65;20.10;;;;;;;3.72;100.00;94787.25;5085459;28;20052;-69
2021/04/18 04:32:14;;;;;;;41.78;20.98;;;;;;;3.74;100.00;94785.28;5083724;28;20079;-69
2021/04/18 04:34:40;;;;;;;38.25;20.23;;;;;;;3.77;100.00;94779.78;5085552;28;20048;-69
2021/04/18 04:37:07;;;;;;;42.75;23.13;;;;;;;3.71;100.00;94775.34;5084433;28;20051;-68
2021/04/18 04:39:33;;;;;;;40.58;21.80;;;;;;;3.71;100.00;94785.66;5084808;28;20124;-69
2021/04/18 04:42:00;;;;;;;44.33;24.20;;;;;;;3.71;100.00;94783.09;5084511;28;20036;-69
2021/04/18 04:44:29;;;;;;;49.45;26.38;;;;;;;3.87;100.00;94800.03;5081356;28;20043;-69
2021/04/18 04:46:56;;;;;;;61.80;30.67;;;;;;;3.77;100.00;94795.22;5083128;28;20123;-68
2021/04/18 04:49:23;;;;;;;48.33;28.50;;;;;;;3.69;100.00;94785.06;5085506;28;20044;-69
2021/04/18 04:51:50;;;;;;;52.65;29.50;;;;;;;3.66;100.00;94772.56;5084429;28;20051;-68
2021/04/18 04:54:17;;;;;;;54.10;29.40;;;;;;;3.72;100.00;94788.06;5083884;28;20124;-69
2021/04/18 04:56:43;;;;;;;55.58;31.27;;;;;;;3.63;100.00;94779.69;5084577;28;20055;-69
2021/04/18 04:59:10;;;;;;;56.60;28.95;;;;;;;3.64;100.00;94770.97;5082628;28;20455;-69
2021/04/18 05:01:36;;;;;;;54.25;30.73;;;;;;;3.65;100.00;94776.91;5084781;28;20044;-68
2021/04/18 05:04:03;;;;;;;66.03;38.72;;;;;;;3.63;100.00;94789.97;5082935;28;20060;-68
2021/04/18 05:06:29;;;;;;;62.63;37.08;;;;;;;3.57;100.00;94785.59;5083195;28;20042;-68
2021/04/18 05:08:56;;;;;;;63.78;36.78;;;;;;;3.67;100.00;94790.41;5084264;28;20539;-69
2021/04/18 05:11:22;;;;;;;102.43;50.10;;;;;;;3.72;100.00;94787.25;5085417;28;20070;-68
2021/04/18 05:13:48;;;;;;;64.63;33.55;;;;;;;3.70;100.00;94791.81;5085441;28;20044;-68
2021/04/18 05:16:15;;;;;;;49.38;26.60;;;;;;;3.61;100.00;94776.50;5086242;28;20044;-69
2021/04/18 05:18:44;;;;;;;50.72;26.08;;;;;;;3.78;100.00;94791.66;5085906;28;20044;-68
2021/04/18 05:21:14;;;;;;;66.45;41.50;;;;;;;3.76;100.00;94791.06;5084996;28;20054;-68
2021/04/18 05:23:40;;;;;;;55.78;33.70;;;;;;;3.71;100.00;94775.34;5084969;28;20040;-68
2021/04/18 05:26:07;;;;;;;54.17;29.33;;;;;;;3.79;100.00;94788.09;5086317;28;20079;-68
2021/04/18 05:28:35;;;;;;;67.38;36.08;;;;;;;3.78;100.00;94789.88;5085461;28;20271;-69
2021/04/18 05:31:02;;;;;;;54.00;32.63;;;;;;;3.83;100.00;94790.13;5085750;28;20046;-69
2021/04/18 05:33:28;;;;;;;52.95;30.33;;;;;;;3.87;100.00;94790.53;5084881;28;20509;-69
2021/04/18 05:35:55;;;;;;;44.47;26.10;;;;;;;3.90;100.00;94784.19;5086169;28;20044;-68
2021/04/18 05:38:22;;;;;;;44.70;25.05;;;;;;;3.76;100.00;94752.41;5068211;28;20043;-68
2021/04/18 05:40:48;;;;;;;53.88;27.15;;;;;;;3.90;100.00;94768.75;5085657;28;20050;-68
2021/04/18 05:43:15;;;;;;;47.25;26.50;;;;;;;4.02;100.00;94768.00;5085778;28;20051;-68
2021/04/18 05:45:41;;;;;;;39.55;24.65;;;;;;;4.02;100.00;94762.84;5085707;28;20055;-68
2021/04/18 05:48:08;;;;;;;49.25;26.65;;;;;;;4.06;100.00;94757.31;5085665;28;20044;-68
2021/04/18 05:50:35;;;;;;;48.97;25.45;;;;;;;4.10;100.00;94763.66;5085525;28;20125;-68
2021/04/18 05:53:01;;;;;;;50.72;26.70;;;;;;;4.10;100.00;94748.22;5084180;28;20475;-68
2021/04/18 05:55:28;;;;;;;49.22;27.00;;;;;;;4.09;100.00;94736.28;5084969;28;20118;-68
2021/04/18 05:57:55;;;;;;;49.45;28.17;;;;;;;4.22;100.00;94757.78;5084937;28;20040;-68
2021/04/18 06:00:22;;;;;;;53.58;30.67;;;;;;;4.31;100.00;94760.97;5084513;28;20124;-68
2021/04/18 06:02:49;;;;;;;49.22;25.48;;;;;;;4.38;100.00;94754.06;5084668;28;20040;-68
2021/04/18 06:05:16;;;;;;;59.47;31.23;;;;;;;4.26;100.00;94747.88;5066692;28;20048;-68
2021/04/18 06:07:43;;;;;;;64.00;32.28;;;;;;;4.45;100.00;94771.31;5083455;28;20046;-68
2021/04/18 06:10:10;;;;;;;47.30;26.65;;;;;;;4.40;100.00;94759.81;5084582;28;20042;-68
2021/04/18 06:12:37;;;;;;;47.58;26.30;;;;;;;4.43;100.00;94763.00;5084765;28;20036;-69
2021/04/18 06:15:05;;;;;;;47.97;24.70;;;;;;;4.51;100.00;94765.41;5085578;28;20047;-68
2021/04/18 06:17:31;;;;;;;39.17;23.27;;;;;;;4.72;100.00;94772.22;5084622;28;20063;-68
2021/04/18 06:19:58;;;;;;;55.80;29.27;;;;;;;4.79;100.00;94778.97;5085057;28;20044;-68
2021/04/18 06:22:24;;;;;;;58.80;31.08;;;;;;;4.82;100.00;94779.56;5083797;28;20508;-68
2021/04/18 06:24:51;;;;;;;53.70;27.25;;;;;;;4.90;100.00;94779.41;5087058;28;20417;-68
2021/04/18 06:27:17;;;;;;;50.65;27.27;;;;;;;4.85;100.00;94782.56;5089511;28;20051;-68
2021/04/18 06:29:43;;;;;;;51.10;24.50;;;;;;;4.86;100.00;94773.84;5070684;28;20044;-68
2021/04/18 06:32:10;;;;;;;36.72;23.50;;;;;;;5.00;100.00;94769.47;5089305;28;20063;-68
2021/04/18 06:34:42;;;;;;;36.88;24.02;;;;;;;5.08;100.00;94771.88;5087908;28;20486;-68
2021/04/18 06:37:08;;;;;;;36.35;21.80;;;;;;;5.02;100.00;94767.47;5089014;28;20036;-68
2021/04/18 06:39:34;;;;;;;31.30;17.52;;;;;;;5.09;100.00;94778.59;5088773;28;20119;-67
2021/04/18 06:42:04;;;;;;;25.98;17.95;;;;;;;5.14;100.00;94776.22;5070202;28;20048;-68
2021/04/18 06:44:32;;;;;;;29.85;17.63;;;;;;;5.05;100.00;94756.75;5088394;28;20097;-68
2021/04/18 06:47:00;;;;;;;22.48;15.18;;;;;;;5.15;100.00;94777.81;5087488;28;20532;-68
2021/04/18 06:49:28;;;;;;;26.02;17.08;;;;;;;5.15;100.00;94783.00;5087549;28;20044;-68
2021/04/18 06:51:56;;;;;;;21.10;15.18;;;;;;;5.00;100.00;94759.13;5088164;28;20055;-67
2021/04/18 06:54:23;;;;;;;23.05;15.13;;;;;;;5.10;100.00;94789.75;5088155;28;20036;-67
2021/04/18 06:56:49;;;;;;;23.80;15.27;;;;;;;5.19;100.00;94785.19;5088387;28;20055;-67
2021/04/18 06:59:16;;;;;;;24.55;15.07;;;;;;;5.19;100.00;94795.50;5088267;28;20046;-68
2021/04/18 07:01:42;;;;;;;28.25;17.13;;;;;;;5.42;100.00;94788.16;5087926;28;20417;-68
2021/04/18 07:04:21;;;;;;;26.98;16.33;;;;;;;5.66;100.00;94791.13;5070015;28;20106;-68
2021/04/18 07:06:52;;;;;;;22.15;13.90;;;;;;;5.88;100.00;94783.91;5088257;28;20145;-67
2021/04/18 07:09:23;;;;;;;29.00;15.10;;;;;;;6.10;100.00;94784.47;5087706;28;20046;-68
2021/04/18 07:11:55;;;;;;;28.05;14.82;;;;;;;6.25;100.00;94782.44;5088433;28;20047;-67
2021/04/18 07:14:32;;;;;;;24.10;14.20;;;;;;;6.36;100.00;94793.16;5087436;28;20040;-68
2021/04/18 07:17:10;;;;;;;28.90;18.58;;;;;;;6.56;100.00;94795.66;5069375;28;20044;-68
2021/04/18 07:19:42;;;;;;;22.77;14.48;;;;;;;6.54;100.00;94798.47;5087562;28;20044;-68
2021/04/18 07:22:10;;;;;;;26.60;16.48;;;;;;;6.63;100.00;94799.03;5087003;28;20567;-68
2021/04/18 07:24:59;;;;;;;36.83;24.75;;;;;;;6.56;99.52;94793.88;5087824;28;20044;-68
2021/04/18 07:27:42;;;;;;;29.67;16.33;;;;;;;6.43;98.24;94793.94;5082603;28;20502;-68
2021/04/18 07:30:09;;;;;;;24.50;17.67;;;;;;;6.56;99.40;94768.00;5075319;28;20055;-68
2021/04/18 07:32:35;;;;;;;24.30;16.33;;;;;;;6.67;99.04;94775.09;5085752;28;20043;-67
2021/04/18 07:35:03;;;;;;;18.83;13.93;;;;;;;6.80;98.20;94783.78;5087877;28;20509;-68
2021/04/18 07:37:29;;;;;;;28.50;13.80;;;;;;;6.88;96.93;94765.44;5086351;28;20036;-68
2021/04/18 07:39:58;;;;;;;19.50;15.40;;;;;;;6.94;97.89;94768.97;5087375;28;20510;-69
2021/04/18 07:42:30;;;;;;;16.23;12.38;;;;;;;6.64;93.25;94785.84;5087529;28;20040;-69
2021/04/18 07:44:59;;;;;;;20.23;15.40;;;;;;;6.59;97.06;94792.66;5068451;28;20048;-68
2021/04/18 07:47:27;;;;;;;21.75;12.60;;;;;;;6.64;95.67;94791.03;5087452;28;20556;-68
2021/04/18 07:49:55;;;;;;;34.13;13.35;;;;;;;6.81;97.24;94806.09;5086278;28;20106;-68
2021/04/18 07:52:26;;;;;;;20.30;14.13;;;;;;;6.84;95.51;94805.66;5084747;28;20047;-68
2021/04/18 07:54:53;;;;;;;16.58;12.40;;;;;;;6.72;94.66;94807.31;5086918;28;20402;-69
2021/04/18 07:57:24;;;;;;;17.38;13.48;;;;;;;6.65;95.12;94802.97;5085860;28;20066;-68
2021/04/18 07:59:51;;;;;;;21.80;12.00;;;;;;;6.80;94.90;94804.50;5087822;28;20043;-68
2021/04/18 08:02:20;;;;;;;19.25;12.38;;;;;;;6.80;93.93;94799.31;5087199;28;20128;-68
2021/04/18 08:04:50;;;;;;;19.58;14.05;;;;;;;7.00;96.48;94799.97;5087204;28;20044;-68
2021/04/18 08:07:17;;;;;;;18.17;11.85;;;;;;;6.83;92.95;94801.50;5085834;28;20051;-68
2021/04/18 08:09:44;;;;;;;17.70;12.73;;;;;;;6.83;93.92;94809.28;5087001;28;20040;-68
2021/04/18 08:12:10;;;;;;;18.85;12.35;;;;;;;6.98;94.78;94807.16;5086806;28;20058;-69
2021/04/18 08:14:39;;;;;;;18.52;12.40;;;;;;;6.85;91.92;94810.63;5086709;28;20082;-68
2021/04/18 08:17:10;;;;;;;21.70;14.98;;;;;;;6.87;92.14;94805.25;5086663;28;20509;-69
2021/04/18 08:19:38;;;;;;;24.55;14.48;;;;;;;6.91;93.79;94798.66;5085743;28;20040;-69
2021/04/18 08:22:05;;;;;;;21.52;12.68;;;;;;;7.00;92.91;94779.28;5085242;28;20039;-68
2021/04/18 08:24:35;;;;;;;25.80;12.13;;;;;;;7.18;91.21;94782.94;5086933;28;20048;-68
2021/04/18 08:27:06;;;;;;;18.08;12.98;;;;;;;7.49;94.51;94792.50;5068753;28;20054;-67
2021/04/18 08:30:02;;;;;;;26.50;15.65;;;;;;;7.41;90.52;94788.34;5083893;28;20074;-68
2021/04/18 08:32:50;;;;;;;28.15;16.83;;;;;;;7.74;90.97;94800.25;5084191;28;20123;-68
2021/04/18 08:35:20;;;;;;;35.70;18.92;;;;;;;7.65;88.99;94791.94;5069614;28;20067;-68
2021/04/18 08:38:15;;;;;;;27.92;15.77;;;;;;;7.74;91.88;94791.66;5085913;28;20044;-68
2021/04/18 08:40:42;;;;;;;15.85;10.02;;;;;;;7.71;88.58;94798.06;5085545;28;20044;-68
2021/04/18 08:43:19;;;;;;;25.83;14.93;;;;;;;8.01;90.56;94797.38;5086627;28;20046;-68
2021/04/18 08:45:51;;;;;;;20.77;10.52;;;;;;;8.07;89.01;94793.94;5067847;28;20064;-68
2021/04/18 08:48:18;;;;;;;20.95;14.02;;;;;;;8.06;86.63;94802.72;5085452;28;20805;-68
2021/04/18 08:50:58;;;;;;;15.93;9.85;;;;;;;8.12;86.68;94807.06;5067880;28;20513;-68
2021/04/18 08:53:26;;;;;;;18.83;9.77;;;;;;;8.39;85.35;94796.38;5085327;28;20122;-68
2021/04/18 08:55:58;;;;;;;27.63;15.05;;;;;;;8.57;87.68;94808.56;5086065;28;20122;-68
2021/04/18 08:58:32;;;;;;;17.63;10.00;;;;;;;8.48;85.17;94805.50;5084648;28;20036;-69
2021/04/18 09:01:09;;;;;;;;;;;;;;;8.35;81.64;94805.59;5083834;28;20040;-68
2021/04/18 09:03:37;;;;;;;23.13;16.52;;;;;;;8.50;87.67;94808.66;5084301;28;20015;-69
2021/04/18 09:06:27;;;;;;;21.00;12.68;;;;;;;8.74;85.24;94817.34;5085996;28;20040;-69
2021/04/18 09:08:54;;;;;;;19.90;15.45;;;;;;;8.60;85.27;94819.31;5085321;28;20102;-69
2021/04/18 09:11:20;;;;;;;26.40;20.30;;;;;;;8.53;86.71;94797.03;5067626;28;20128;-68
2021/04/18 09:13:58;;;;;;;18.73;10.43;;;;;;;8.30;83.71;94808.06;5086202;28;20126;-69
2021/04/18 09:16:30;;;;;;;18.73;12.50;;;;;;;8.47;86.41;94801.31;5084802;28;20131;-69
2021/04/18 09:19:29;;;;;;;38.90;21.33;;;;;;;8.89;85.87;94811.75;5084635;28;20048;-69
2021/04/18 09:21:57;;;;;;;19.05;11.80;;;;;;;8.78;83.55;94815.09;5084913;28;20042;-70
2021/04/18 09:24:25;;;;;;;18.85;12.27;;;;;;;8.58;84.15;94799.78;5068328;28;21633;-69
2021/04/18 09:26:55;;;;;;;20.55;13.35;;;;;;;8.66;84.03;94801.28;5080019;28;20052;-69
2021/04/18 09:29:23;;;;;;;22.77;12.88;;;;;;;8.83;83.59;94797.06;5081266;28;20118;-69
2021/04/18 09:32:05;;;;;;;19.83;13.32;;;;;;;8.74;85.34;94800.97;5080631;28;20048;-68
2021/04/18 09:34:33;;;;;;;18.38;10.85;;;;;;;9.19;85.16;94800.56;5081964;28;20591;-69
2021/04/18 09:37:06;;;;;;;19.48;13.20;;;;;;;9.34;84.45;94790.53;5081568;28;20048;-69
2021/04/18 09:39:35;;;;;;;16.45;11.15;;;;;;;9.51;81.61;94788.06;5081256;28;20052;-69
2021/04/18 09:42:03;;;;;;;17.20;10.93;;;;;;;9.33;82.76;94791.56;5082915;28;20048;-69
2021/04/18 09:44:46;;;;;;;18.10;11.20;;;;;;;9.42;82.28;94793.81;5082923;28;20509;-69
2021/04/18 09:47:18;;;;;;;18.67;10.68;;;;;;;9.43;82.01;94800.59;5084311;28;20040;-69
2021/04/18 09:49:52;;;;;;;17.23;10.82;;;;;;;9.34;83.06;94803.50;5084296;28;20085;-69
2021/04/18 09:52:37;;;;;;;17.33;10.43;;;;;;;9.43;80.20;94816.19;5085195;28;20040;-69
2021/04/18 09:55:10;;;;;;;16.75;11.38;;;;;;;9.49;81.37;94810.91;5083685;28;20058;-70
2021/04/18 09:57:47;;;;;;;14.93;9.48;;;;;;;9.30;82.31;94807.59;5084400;28;20048;-70
2021/04/18 10:00:17;;;;;;;17.30;12.13;;;;;;;8.79;82.75;94817.47;5086994;28;20044;-69
2021/04/18 10:03:11;;;;;;;19.15;14.85;;;;;;;8.67;83.93;94808.06;5088932;28;20047;-69
2021/04/18 10:05:47;;;;;;;23.73;11.88;;;;;;;9.09;82.92;94797.69;5075832;28;20052;-70
2021/04/18 10:08:38;;;;;;;19.77;10.40;;;;;;;9.46;83.26;94790.56;5087298;28;20506;-70
2021/04/18 10:11:08;;;;;;;21.42;13.43;;;;;;;9.74;80.99;94795.09;5077580;28;20056;-70
2021/04/18 10:13:49;;;;;;;18.77;11.25;;;;;;;9.73;78.40;94806.50;5088233;28;20048;-69
2021/04/18 10:16:24;;;;;;;24.40;9.80;;;;;;;9.92;76.08;94803.78;5089022;28;20064;-69
2021/04/18 10:19:10;;;;;;;15.10;9.43;;;;;;;10.24;77.95;94811.22;5068285;28;20052;-70
2021/04/18 10:21:39;;;;;;;18.63;11.57;;;;;;;10.18;77.33;94801.75;5087874;28;20036;-71
2021/04/18 10:24:37;;;;;;;16.60;10.35;;;;;;;10.75;74.56;94812.28;5088968;28;20131;-71
2021/04/18 10:27:06;;;;;;;20.33;11.43;;;;;;;10.99;76.30;94801.78;5081635;28;20040;-71
2021/04/18 10:29:34;;;;;;;19.35;11.60;;;;;;;10.66;75.33;94803.22;5087896;28;20044;-71
2021/04/18 10:32:00;;;;;;;22.08;12.85;;;;;;;10.51;77.48;94794.13;5088324;28;20060;-71
2021/04/18 10:34:27;;;;;;;22.42;11.35;;;;;;;11.02;77.60;94791.66;5068708;28;20040;-70
2021/04/18 10:36:55;;;;;;;26.13;11.57;;;;;;;11.43;73.69;94770.69;5087895;28;20085;-70
2021/04/18 10:39:22;;;;;;;23.83;13.27;;;;;;;11.84;69.74;94792.16;5088450;28;20058;-70
2021/04/18 10:41:50;;;;;;;24.08;12.73;;;;;;;12.03;69.38;94779.69;5087657;28;20043;-70
2021/04/18 10:44:17;;;;;;;30.95;15.48;;;;;;;12.24;69.05;94796.38;5088341;28;20116;-70
2021/04/18 10:46:44;;;;;;;25.95;14.52;;;;;;;12.20;71.19;94795.28;5087665;28;20131;-70
2021/04/18 10:49:11;;;;;;;29.73;17.30;;;;;;;12.22;70.75;94793.22;5087458;28;20047;-70
2021/04/18 10:51:38;;;;;;;26.70;17.00;;;;;;;12.54;69.54;94800.41;5088280;28;20040;-70
2021/04/18 10:54:04;;;;;;;25.48;14.63;;;;;;;12.01;69.51;94813.84;5087416;28;20050;-70
2021/04/18 10:56:31;;;;;;;32.13;14.57;;;;;;;12.12;70.33;94798.31;5086432;28;20494;-70
2021/04/18 10:58:58;;;;;;;34.63;15.35;;;;;;;11.60;73.28;94808.00;5058732;28;20485;-70
2021/04/18 11:01:25;;;;;;;27.83;14.95;;;;;;;11.85;73.48;94788.53;5088213;28;20035;-71
2021/04/18 11:03:52;;;;;;;29.52;15.40;;;;;;;11.70;73.21;94796.13;5087229;28;20067;-70
2021/04/18 11:06:19;;;;;;;29.23;14.05;;;;;;;12.14;72.25;94804.09;5088252;28;20426;-71
2021/04/18 11:08:46;;;;;;;28.38;17.85;;;;;;;12.22;70.65;94803.66;5087792;28;20044;-70
2021/04/18 11:11:13;;;;;;;35.78;20.67;;;;;;;12.32;68.61;94797.81;5086276;28;20032;-69
2021/04/18 11:13:39;;;;;;;29.73;15.05;;;;;;;12.49;66.54;94802.97;5082554;28;20441;-70
2021/04/18 11:16:07;;;;;;;32.88;18.92;;;;;;;12.67;65.38;94800.03;5087627;28;20051;-70
2021/04/18 11:18:34;;;;;;;25.85;15.00;;;;;;;12.79;64.23;94802.53;5068720;28;20043;-69
2021/04/18 11:21:01;;;;;;;28.48;14.60;;;;;;;12.75;63.70;94802.22;5086017;28;20485;-70
2021/04/18 11:23:28;;;;;;;26.25;13.75;;;;;;;12.76;63.38;94803.78;5068154;28;20075;-71
2021/04/18 11:25:55;;;;;;;27.83;15.07;;;;;;;12.43;63.63;94805.50;5085417;28;20043;-71
2021/04/18 11:28:21;;;;;;;31.23;15.05;;;;;;;12.42;64.23;94814.41;5085735;28;20072;-71
2021/04/18 11:30:48;;;;;;;27.33;14.00;;;;;;;12.47;63.52;94821.50;5085519;28;20409;-71